Time;durP1;ratioP1;P1;durP2;ratioP2;P2;SDS_P1;SDS_P2;PMS_P1;PMS_P2;Temp;Humidity;BMP_temperature;BMP_pressure;BME280_temperature;BME280_humidity;BME280_pressure;Samples;Min_cycle;Max_cycle;Signal;HPM_P1;HPM_P2
2023/06/24 00:00:38;;;;;;;34.55;20.60;;;;;;;;;;2518969;23;20018;-95
2023/06/24 00:02:03;;;;;;;32.00;19.95;;;;;;;;;;2520649;23;20023;-96
2023/06/24 00:03:26;;;;;;;32.53;19.92;;;;;;;;;;2521008;23;20014;-96
2023/06/24 00:04:47;;;;;;;34.40;21.45;;;;;;;;;;2523173;23;20094;-96
2023/06/24 00:06:17;;;;;;;32.43;20.10;;;;;;;;;;2520111;23;20494;-96
2023/06/24 00:07:49;;;;;;;31.92;19.88;;;;;;;;;;2495997;23;20405;-95
2023/06/24 00:09:13;;;;;;;30.42;20.02;;;;;;;;;;2524297;23;20067;-96
2023/06/24 00:10:40;;;;;;;31.73;20.55;;;;;;;;;;2523084;23;20048;-96
2023/06/24 00:12:04;;;;;;;28.13;18.55;;;;;;;;;;2520175;23;20100;-96
2023/06/24 00:13:30;;;;;;;31.45;19.85;;;;;;;;;;2521968;23;20068;-96
2023/06/24 00:14:51;;;;;;;33.30;20.25;;;;;;;;;;2522124;23;20014;-96
2023/06/24 00:16:12;;;;;;;35.15;20.85;;;;;;;;;;2522478;23;20010;-96
2023/06/24 00:17:33;;;;;;;36.30;20.15;;;;;;;;;;2506386;23;20026;-96
2023/06/24 00:18:58;;;;;;;30.07;19.03;;;;;;;;;;2525537;23;20010;-96
2023/06/24 00:20:19;;;;;;;39.10;20.85;;;;;;;;;;2528721;23;20374;-96
2023/06/24 00:21:42;;;;;;;37.42;21.60;;;;;;;;;;2523675;23;20058;-95
2023/06/24 00:23:18;;;;;;;39.40;22.42;;;;;;;;;;2524615;23;19999;-95
2023/06/24 00:24:46;;;;;;;29.40;18.88;;;;;;;;;;2517371;23;20200;-95
2023/06/24 00:26:10;;;;;;;34.65;19.52;;;;;;;;;;2535198;23;20050;-95
2023/06/24 00:27:38;;;;;;;30.65;18.77;;;;;;;;;;2512356;23;20014;-95
2023/06/24 00:29:08;;;;;;;31.10;19.00;;;;;;;;;;2525857;23;20006;-96
2023/06/24 00:30:32;;;;;;;37.33;19.23;;;;;;;;;;2526518;23;20025;-95
2023/06/24 00:31:55;;;;;;;25.95;16.92;;;;;;;;;;2522891;23;20014;-96
2023/06/24 00:33:19;;;;;;;22.33;16.08;;;;;;;;;;2524856;23;20010;-96
2023/06/24 00:34:47;;;;;;;27.50;15.55;;;;;;;;;;2536438;23;20006;-95
2023/06/24 00:36:11;;;;;;;31.20;18.25;;;;;;;;;;2527126;23;19995;-95
2023/06/24 00:37:32;;;;;;;28.08;17.73;;;;;;;;;;2520617;23;20007;-96
2023/06/24 00:38:53;;;;;;;29.38;17.63;;;;;;;;;;2521972;23;19995;-95
2023/06/24 00:40:15;;;;;;;24.87;16.43;;;;;;;;;;2523271;23;19999;-95
2023/06/24 00:41:39;;;;;;;29.25;16.65;;;;;;;;;;2523796;23;20026;-96
2023/06/24 00:43:02;;;;;;;28.27;17.65;;;;;;;;;;2522946;23;20010;-95
2023/06/24 00:44:23;;;;;;;29.38;18.00;;;;;;;;;;2523229;23;20030;-96
2023/06/24 00:45:48;;;;;;;25.42;16.45;;;;;;;;;;2521163;23;20025;-95
2023/06/24 00:47:16;;;;;;;42.97;23.15;;;;;;;;;;2511030;23;20038;-95
2023/06/24 00:48:37;;;;;;;30.10;17.65;;;;;;;;;;2523531;23;20010;-95
2023/06/24 00:50:00;;;;;;;26.63;17.58;;;;;;;;;;2524088;23;20011;-96
2023/06/24 00:51:31;;;;;;;25.52;16.92;;;;;;;;;;2525141;23;20011;-96
2023/06/24 00:52:52;;;;;;;26.83;17.15;;;;;;;;;;2512142;23;20349;-95
2023/06/24 00:54:13;;;;;;;30.83;18.13;;;;;;;;;;2533742;23;20010;-95
2023/06/24 00:55:37;;;;;;;30.55;16.65;;;;;;;;;;2523027;23;20025;-95
2023/06/24 00:57:00;;;;;;;28.67;17.67;;;;;;;;;;2524563;23;20297;-95
2023/06/24 00:58:21;;;;;;;30.17;16.40;;;;;;;;;;2518624;23;20388;-95
2023/06/24 00:59:46;;;;;;;27.40;16.48;;;;;;;;;;2520977;23;20026;-96
2023/06/24 01:01:18;;;;;;;30.40;17.13;;;;;;;;;;2525554;23;20022;-95
2023/06/24 01:02:42;;;;;;;28.45;17.35;;;;;;;;;;2527595;23;20025;-95
2023/06/24 01:04:57;;;;;;;29.05;17.60;;;;;;;;;;2546665;23;20013;-88
2023/06/24 01:06:18;;;;;;;30.02;16.75;;;;;;;;;;2544291;23;20013;-87
2023/06/24 01:07:40;;;;;;;28.65;16.42;;;;;;;;;;2538248;23;20040;-87
2023/06/24 01:09:02;;;;;;;27.25;16.38;;;;;;;;;;2542341;23;20005;-88
2023/06/24 01:10:24;;;;;;;30.67;17.77;;;;;;;;;;2553654;23;20441;-88
2023/06/24 01:11:45;;;;;;;25.45;16.92;;;;;;;;;;2545679;23;20024;-88
2023/06/24 01:13:32;;;;;;;26.23;16.42;;;;;;;;;;2539476;23;20025;-87
2023/06/24 01:15:20;;;;;;;27.17;17.08;;;;;;;;;;2545212;23;20398;-88
2023/06/24 01:17:07;;;;;;;29.58;17.58;;;;;;;;;;2546903;23;20021;-87
2023/06/24 01:18:38;;;;;;;31.48;17.33;;;;;;;;;;2543837;23;20028;-87
2023/06/24 01:20:09;;;;;;;27.60;17.10;;;;;;;;;;2542363;23;20021;-88
2023/06/24 01:21:49;;;;;;;27.85;17.85;;;;;;;;;;2543022;23;20041;-88
2023/06/24 01:23:10;;;;;;;29.00;18.23;;;;;;;;;;2545200;23;20006;-88
2023/06/24 01:24:51;;;;;;;30.48;17.23;;;;;;;;;;2541153;23;20050;-87
2023/06/24 01:26:30;;;;;;;26.38;15.73;;;;;;;;;;2544531;23;20351;-87
2023/06/24 01:28:09;;;;;;;27.48;17.25;;;;;;;;;;2543530;23;20009;-87
2023/06/24 01:29:50;;;;;;;30.58;17.95;;;;;;;;;;2542444;23;20020;-87
2023/06/24 01:31:17;;;;;;;29.63;16.85;;;;;;;;;;2546002;23;20009;-87
2023/06/24 01:33:03;;;;;;;28.77;17.10;;;;;;;;;;2544387;23;20005;-87
2023/06/24 01:34:40;;;;;;;28.38;16.48;;;;;;;;;;2546070;23;20016;-87
2023/06/24 01:36:06;;;;;;;26.25;15.70;;;;;;;;;;2542446;23;20013;-87
2023/06/24 01:37:27;;;;;;;32.00;17.10;;;;;;;;;;2538029;23;20097;-87
2023/06/24 01:39:13;;;;;;;27.88;15.52;;;;;;;;;;2545628;23;20434;-88
2023/06/24 01:40:52;;;;;;;33.03;16.92;;;;;;;;;;2508079;23;20017;-87
2023/06/24 01:42:14;;;;;;;31.92;16.42;;;;;;;;;;2517910;23;20011;-87
2023/06/24 01:43:35;;;;;;;23.38;15.13;;;;;;;;;;2539358;23;20006;-86
2023/06/24 01:44:56;;;;;;;29.80;16.15;;;;;;;;;;2543221;23;20017;-88
2023/06/24 01:46:19;;;;;;;27.90;15.10;;;;;;;;;;2539334;23;20081;-87
2023/06/24 01:47:45;;;;;;;31.42;16.90;;;;;;;;;;2540369;23;20006;-87
2023/06/24 01:49:07;;;;;;;29.83;17.27;;;;;;;;;;2541272;23;20017;-88
2023/06/24 01:50:28;;;;;;;;;;;;;;;;;;2543879;23;20466;-88
2023/06/24 01:51:55;;;;;;;24.80;14.98;;;;;;;;;;2552136;23;19904;-87
2023/06/24 01:53:17;;;;;;;26.40;15.43;;;;;;;;;;2544588;23;20010;-87
2023/06/24 01:54:39;;;;;;;26.88;16.08;;;;;;;;;;2540758;23;20347;-88
2023/06/24 01:56:01;;;;;;;27.80;16.00;;;;;;;;;;2539868;23;20351;-87
2023/06/24 01:57:23;;;;;;;22.83;15.27;;;;;;;;;;2542856;23;20423;-87
2023/06/24 01:58:45;;;;;;;30.50;17.43;;;;;;;;;;2540932;23;20014;-88
2023/06/24 02:00:07;;;;;;;24.77;15.25;;;;;;;;;;2553515;23;20856;-87
2023/06/24 02:01:29;;;;;;;29.13;15.52;;;;;;;;;;2545192;23;20014;-87
2023/06/24 02:02:50;;;;;;;24.25;15.02;;;;;;;;;;2539170;23;20016;-87
2023/06/24 02:04:12;;;;;;;28.10;15.88;;;;;;;;;;2539502;23;20013;-87
2023/06/24 02:05:34;;;;;;;22.92;14.38;;;;;;;;;;2542864;23;20013;-87
2023/06/24 02:06:55;;;;;;;27.88;15.55;;;;;;;;;;2541459;23;20076;-87
2023/06/24 02:08:16;;;;;;;22.88;14.40;;;;;;;;;;2552906;23;20009;-87
2023/06/24 02:09:38;;;;;;;28.15;14.95;;;;;;;;;;2543554;23;20025;-87
2023/06/24 02:10:59;;;;;;;21.65;14.43;;;;;;;;;;2539866;23;20024;-87
2023/06/24 02:12:21;;;;;;;25.50;14.55;;;;;;;;;;2538928;23;20033;-87
2023/06/24 02:13:42;;;;;;;23.00;14.50;;;;;;;;;;2543957;23;20020;-87
2023/06/24 02:15:07;;;;;;;25.30;15.57;;;;;;;;;;2542095;23;20013;-89
2023/06/24 02:16:32;;;;;;;24.33;14.75;;;;;;;;;;2554367;23;20066;-87
2023/06/24 02:17:56;;;;;;;39.13;20.10;;;;;;;;;;2532088;23;20020;-95
2023/06/24 02:19:17;;;;;;;27.52;15.35;;;;;;;;;;2543307;23;20013;-94
2023/06/24 02:20:39;;;;;;;26.55;16.05;;;;;;;;;;2541788;23;20017;-95
2023/06/24 02:22:04;;;;;;;26.88;15.88;;;;;;;;;;2545279;23;20431;-94
2023/06/24 02:23:25;;;;;;;29.30;15.25;;;;;;;;;;2544941;23;20016;-95
2023/06/24 02:24:47;;;;;;;25.65;16.05;;;;;;;;;;2540794;23;20032;-94
2023/06/24 02:26:20;;;;;;;26.25;15.80;;;;;;;;;;2541831;23;20010;-94
2023/06/24 02:29:31;;;;;;;25.40;14.85;;;;;;;;;;2557574;23;19904;-93
2023/06/24 02:31:00;;;;;;;30.13;16.42;;;;;;;;;;2547237;23;20096;-95
2023/06/24 02:32:21;;;;;;;22.35;13.75;;;;;;;;;;2531636;23;20037;-94
2023/06/24 02:33:42;;;;;;;26.60;14.60;;;;;;;;;;2552462;23;20031;-96
2023/06/24 02:35:04;;;;;;;23.88;15.43;;;;;;;;;;2545173;23;20014;-96
2023/06/24 02:36:25;;;;;;;27.85;15.27;;;;;;;;;;2540646;23;20036;-96
2023/06/24 02:37:46;;;;;;;33.05;17.05;;;;;;;;;;2539881;23;20017;-96
2023/06/24 02:39:07;;;;;;;23.70;14.25;;;;;;;;;;2544690;23;20028;-95
2023/06/24 02:40:29;;;;;;;23.45;14.15;;;;;;;;;;2543270;23;20017;-96
2023/06/24 02:41:56;;;;;;;23.90;14.10;;;;;;;;;;2555936;23;20009;-96
2023/06/24 02:43:17;;;;;;;22.00;14.52;;;;;;;;;;2545597;23;20014;-96
2023/06/24 02:44:38;;;;;;;23.55;14.15;;;;;;;;;;2542814;23;20009;-96
2023/06/24 02:46:01;;;;;;;28.92;13.70;;;;;;;;;;2541054;23;20081;-96
2023/06/24 02:47:23;;;;;;;24.13;14.35;;;;;;;;;;2544965;23;20009;-96
2023/06/24 02:48:54;;;;;;;20.98;13.38;;;;;;;;;;2516898;23;20013;-96
2023/06/24 02:50:44;;;;;;;22.55;13.18;;;;;;;;;;2558165;23;20009;-96
2023/06/24 02:52:05;;;;;;;21.35;13.35;;;;;;;;;;2550023;23;20014;-95
2023/06/24 02:54:02;;;;;;;21.88;12.57;;;;;;;;;;2544244;23;20021;-95
2023/06/24 02:55:54;;;;;;;19.40;11.73;;;;;;;;;;2548006;23;20020;-96
2023/06/24 02:57:23;;;;;;;24.02;12.77;;;;;;;;;;2551768;23;20017;-96
2023/06/24 02:58:56;;;;;;;23.85;13.55;;;;;;;;;;2554885;23;20025;-95
2023/06/24 03:00:33;;;;;;;17.85;12.10;;;;;;;;;;2547988;23;20430;-96
2023/06/24 03:02:09;;;;;;;23.40;12.60;;;;;;;;;;2548047;23;20020;-96
2023/06/24 03:05:25;;;;;;;23.42;13.27;;;;;;;;;;2547947;23;20018;-96
2023/06/24 03:06:46;;;;;;;22.15;13.10;;;;;;;;;;2545328;23;20462;-96
2023/06/24 03:08:07;;;;;;;28.23;16.40;;;;;;;;;;2552574;23;20017;-96
2023/06/24 03:09:29;;;;;;;22.17;12.93;;;;;;;;;;2544360;23;20453;-96
2023/06/24 03:10:51;;;;;;;25.88;13.55;;;;;;;;;;2542695;23;20005;-94
2023/06/24 03:12:24;;;;;;;26.00;13.88;;;;;;;;;;2542420;23;20017;-95
2023/06/24 03:14:00;;;;;;;26.17;13.88;;;;;;;;;;2541962;23;20018;-95
2023/06/24 03:15:22;;;;;;;25.15;13.57;;;;;;;;;;2546271;23;20473;-95
2023/06/24 03:16:43;;;;;;;21.73;12.68;;;;;;;;;;2554141;23;20072;-96
2023/06/24 03:18:07;;;;;;;48.95;20.65;;;;;;;;;;2532610;23;20018;-96
2023/06/24 03:19:41;;;;;;;20.65;12.55;;;;;;;;;;2539375;23;20025;-96
2023/06/24 03:21:06;;;;;;;26.58;14.82;;;;;;;;;;2546019;23;20431;-96
2023/06/24 03:22:27;;;;;;;26.95;13.80;;;;;;;;;;2539715;23;20018;-96
2023/06/24 03:23:48;;;;;;;21.67;12.85;;;;;;;;;;2542365;23;20013;-96
2023/06/24 03:25:09;;;;;;;19.70;13.05;;;;;;;;;;2540305;23;20481;-96
2023/06/24 03:26:34;;;;;;;24.27;12.77;;;;;;;;;;2555136;23;20016;-94
2023/06/24 03:28:07;;;;;;;28.92;13.40;;;;;;;;;;2547200;23;20009;-96
2023/06/24 03:29:31;;;;;;;23.33;13.07;;;;;;;;;;2543579;23;20047;-96
2023/06/24 03:30:52;;;;;;;22.17;13.60;;;;;;;;;;2542703;23;20005;-96
2023/06/24 03:32:16;;;;;;;24.98;14.55;;;;;;;;;;2539526;23;20388;-96
2023/06/24 03:33:37;;;;;;;22.33;13.50;;;;;;;;;;2549944;23;20021;-94
2023/06/24 03:35:01;;;;;;;22.50;13.48;;;;;;;;;;2543408;23;20017;-96
2023/06/24 03:36:23;;;;;;;26.42;14.88;;;;;;;;;;2543746;23;20013;-96
2023/06/24 03:37:50;;;;;;;24.23;13.30;;;;;;;;;;2529457;23;20341;-96
2023/06/24 03:39:20;;;;;;;22.63;13.45;;;;;;;;;;2514848;23;20017;-96
2023/06/24 03:40:47;;;;;;;23.27;13.25;;;;;;;;;;2536506;23;20010;-96
2023/06/24 03:42:10;;;;;;;20.95;13.00;;;;;;;;;;2547827;23;20442;-96
2023/06/24 03:43:34;;;;;;;21.08;13.05;;;;;;;;;;2544850;23;20005;-95
2023/06/24 03:44:55;;;;;;;24.10;13.98;;;;;;;;;;2543223;23;20004;-96
2023/06/24 03:46:16;;;;;;;24.05;14.00;;;;;;;;;;2543820;23;20017;-89
2023/06/24 03:47:38;;;;;;;27.95;14.32;;;;;;;;;;2554500;23;20004;-90
2023/06/24 03:49:20;;;;;;;22.92;12.95;;;;;;;;;;2530708;23;20021;-89
2023/06/24 03:50:44;;;;;;;22.87;13.37;;;;;;;;;;2546612;23;20443;-89
2023/06/24 03:52:08;;;;;;;22.83;13.00;;;;;;;;;;2543719;23;20016;-89
2023/06/24 03:53:32;;;;;;;20.30;13.80;;;;;;;;;;2540813;23;20009;-87
2023/06/24 03:54:54;;;;;;;20.80;12.90;;;;;;;;;;2542964;23;20065;-89
2023/06/24 03:56:17;;;;;;;22.25;13.15;;;;;;;;;;2554721;23;20016;-87
2023/06/24 03:57:39;;;;;;;21.67;12.70;;;;;;;;;;2545628;23;20388;-88
2023/06/24 03:59:03;;;;;;;22.45;13.77;;;;;;;;;;2512037;23;20021;-88
2023/06/24 04:00:29;;;;;;;22.80;13.35;;;;;;;;;;2532752;23;20038;-87
2023/06/24 04:01:54;;;;;;;24.08;14.13;;;;;;;;;;2544106;23;20009;-87
2023/06/24 04:03:18;;;;;;;23.92;13.55;;;;;;;;;;2543423;23;20031;-87
2023/06/24 04:04:41;;;;;;;23.80;14.30;;;;;;;;;;2541757;23;20013;-87
2023/06/24 04:06:02;;;;;;;20.30;13.20;;;;;;;;;;2541752;23;20383;-87
2023/06/24 04:07:29;;;;;;;24.98;14.23;;;;;;;;;;2539121;23;20016;-87
2023/06/24 04:08:51;;;;;;;25.30;15.05;;;;;;;;;;2543832;23;20461;-87
2023/06/24 04:10:12;;;;;;;25.05;14.93;;;;;;;;;;2554562;23;20091;-86
2023/06/24 04:11:33;;;;;;;30.15;15.95;;;;;;;;;;2544826;23;20013;-87
2023/06/24 04:13:05;;;;;;;25.08;14.73;;;;;;;;;;2538099;23;20462;-87
2023/06/24 04:14:29;;;;;;;29.27;15.32;;;;;;;;;;2537558;23;20029;-87
2023/06/24 04:16:16;;;;;;;27.13;15.07;;;;;;;;;;2544337;23;20024;-87
2023/06/24 04:17:37;;;;;;;27.40;14.82;;;;;;;;;;2545338;23;20289;-87
2023/06/24 04:18:58;;;;;;;26.45;13.68;;;;;;;;;;2539243;23;20014;-87
2023/06/24 04:20:19;;;;;;;21.92;13.55;;;;;;;;;;2547256;23;20021;-88
2023/06/24 04:21:40;;;;;;;24.08;15.18;;;;;;;;;;2540591;23;20017;-88
2023/06/24 04:23:01;;;;;;;23.67;14.02;;;;;;;;;;2540705;23;20036;-88
2023/06/24 04:24:22;;;;;;;25.85;14.52;;;;;;;;;;2542252;23;20006;-88
2023/06/24 04:25:44;;;;;;;28.70;15.70;;;;;;;;;;2539007;23;20010;-86
2023/06/24 04:27:09;;;;;;;27.63;15.15;;;;;;;;;;2546751;23;20017;-87
2023/06/24 04:28:39;;;;;;;28.45;14.60;;;;;;;;;;2529411;23;20014;-88
2023/06/24 04:30:07;;;;;;;23.60;13.85;;;;;;;;;;2542892;23;20111;-88
2023/06/24 04:31:30;;;;;;;25.75;14.30;;;;;;;;;;2543117;23;20012;-88
2023/06/24 04:32:53;;;;;;;24.20;14.25;;;;;;;;;;2540024;23;20013;-87
2023/06/24 04:34:14;;;;;;;23.73;13.40;;;;;;;;;;2540379;23;20020;-87
2023/06/24 04:35:36;;;;;;;24.85;13.93;;;;;;;;;;2541802;23;20018;-87
2023/06/24 04:36:56;;;;;;;24.95;15.00;;;;;;;;;;2540523;23;19997;-87
2023/06/24 04:38:20;;;;;;;22.25;14.63;;;;;;;;;;2547644;23;20481;-90
2023/06/24 04:39:41;;;;;;;29.73;15.38;;;;;;;;;;2540443;23;20017;-89
2023/06/24 04:41:03;;;;;;;28.73;13.98;;;;;;;;;;2540819;23;20009;-87
2023/06/24 04:42:30;;;;;;;24.05;14.30;;;;;;;;;;2542736;23;20022;-89
2023/06/24 04:43:51;;;;;;;28.63;15.35;;;;;;;;;;2519639;23;20014;-88
2023/06/24 04:45:16;;;;;;;25.88;14.13;;;;;;;;;;2544034;23;20010;-87
2023/06/24 04:47:17;;;;;;;30.70;16.42;;;;;;;;;;2539578;23;20048;-88
2023/06/24 04:48:41;;;;;;;25.77;14.52;;;;;;;;;;2545658;23;20522;-88
2023/06/24 04:50:05;;;;;;;26.20;14.57;;;;;;;;;;2542258;23;20438;-87
2023/06/24 04:51:26;;;;;;;31.23;15.88;;;;;;;;;;2541494;23;20085;-87
2023/06/24 04:52:52;;;;;;;25.85;14.40;;;;;;;;;;2543040;23;20012;-87
2023/06/24 04:54:13;;;;;;;25.50;15.32;;;;;;;;;;2542311;23;20013;-87
2023/06/24 04:55:35;;;;;;;27.75;15.73;;;;;;;;;;2541282;23;20024;-89
2023/06/24 04:56:57;;;;;;;32.33;16.33;;;;;;;;;;2540201;23;20411;-87
2023/06/24 04:58:18;;;;;;;25.40;15.10;;;;;;;;;;2542990;23;20013;-87
2023/06/24 04:59:39;;;;;;;25.15;15.45;;;;;;;;;;2551560;23;20021;-88
2023/06/24 05:01:00;;;;;;;24.95;14.63;;;;;;;;;;2543780;23;20009;-86
2023/06/24 05:02:21;;;;;;;29.02;15.57;;;;;;;;;;2538740;23;20044;-87
2023/06/24 05:03:42;;;;;;;30.05;16.05;;;;;;;;;;2539411;23;20032;-87
2023/06/24 05:09:31;;;;;;;19.50;10.27;;;;;;;;;;2544698;23;20069;-91
2023/06/24 05:10:52;;;;;;;15.32;9.52;;;;;;;;;;2532877;23;20474;-93
2023/06/24 05:12:33;;;;;;;20.48;11.23;;;;;;;;;;2531010;23;20010;-91
2023/06/24 05:16:02;;;;;;;23.85;11.98;;;;;;;;;;2542940;23;20055;-92
2023/06/24 05:17:23;;;;;;;20.27;11.02;;;;;;;;;;2534795;23;20010;-91
2023/06/24 05:18:45;;;;;;;21.30;11.52;;;;;;;;;;2530274;23;20006;-93
2023/06/24 05:20:06;;;;;;;18.27;10.27;;;;;;;;;;2531379;23;20021;-91
2023/06/24 05:21:30;;;;;;;25.47;12.17;;;;;;;;;;2528900;23;20010;-94
2023/06/24 05:22:51;;;;;;;19.05;11.23;;;;;;;;;;2531018;23;20010;-91
2023/06/24 05:24:12;;;;;;;24.90;12.80;;;;;;;;;;2530884;23;20021;-91
2023/06/24 05:25:35;;;;;;;22.80;12.17;;;;;;;;;;2531557;23;20005;-91
2023/06/24 05:26:56;;;;;;;23.05;12.75;;;;;;;;;;2535201;23;20014;-91
2023/06/24 05:28:24;;;;;;;20.25;11.30;;;;;;;;;;2531488;23;20085;-92
2023/06/24 05:29:45;;;;;;;24.95;12.50;;;;;;;;;;2529688;23;20025;-91
2023/06/24 05:31:06;;;;;;;24.75;12.88;;;;;;;;;;2532176;23;20013;-92
2023/06/24 05:32:27;;;;;;;28.08;12.98;;;;;;;;;;2528828;23;20001;-91
2023/06/24 05:33:50;;;;;;;30.50;14.05;;;;;;;;;;2529367;23;20009;-93
2023/06/24 05:35:12;;;;;;;24.75;12.48;;;;;;;;;;2530518;23;20363;-93
2023/06/24 05:36:33;;;;;;;31.92;13.23;;;;;;;;;;2529035;23;20054;-91
2023/06/24 05:37:55;;;;;;;30.35;13.20;;;;;;;;;;2531473;23;20013;-90
2023/06/24 05:41:14;;;;;;;30.52;14.85;;;;;;;;;;2544747;23;20032;-93
2023/06/24 05:42:35;;;;;;;28.50;13.30;;;;;;;;;;2532052;23;20021;-94
2023/06/24 05:44:05;;;;;;;31.83;15.20;;;;;;;;;;2531131;23;20089;-93
2023/06/24 05:45:26;;;;;;;29.95;15.23;;;;;;;;;;2533390;23;20017;-91
2023/06/24 05:46:47;;;;;;;29.02;14.48;;;;;;;;;;2528652;23;20010;-91
2023/06/24 05:48:08;;;;;;;29.10;14.65;;;;;;;;;;2530673;23;20010;-91
2023/06/24 05:49:29;;;;;;;48.65;21.63;;;;;;;;;;2527114;23;20018;-90
2023/06/24 05:50:50;;;;;;;32.72;14.77;;;;;;;;;;2530251;23;20022;-91
2023/06/24 05:52:11;;;;;;;26.75;13.82;;;;;;;;;;2527921;23;20018;-91
2023/06/24 05:53:32;;;;;;;30.25;14.85;;;;;;;;;;2530373;23;20463;-91
2023/06/24 05:54:56;;;;;;;30.92;14.48;;;;;;;;;;2528295;23;20535;-94
2023/06/24 05:56:24;;;;;;;26.27;13.60;;;;;;;;;;2531905;23;20025;-95
2023/06/24 05:57:56;;;;;;;31.73;14.32;;;;;;;;;;2530294;23;20021;-92
2023/06/24 05:59:27;;;;;;;38.47;17.00;;;;;;;;;;2518049;23;20034;-92
2023/06/24 06:01:01;;;;;;;26.63;14.02;;;;;;;;;;2544654;23;20006;-91
2023/06/24 06:02:22;;;;;;;27.30;14.82;;;;;;;;;;2533522;23;20014;-95
2023/06/24 06:03:43;;;;;;;25.40;13.90;;;;;;;;;;2531541;23;20010;-94
2023/06/24 06:05:04;;;;;;;29.08;14.90;;;;;;;;;;2529307;23;20006;-94
2023/06/24 06:06:25;;;;;;;25.30;13.27;;;;;;;;;;2532332;23;20017;-94
2023/06/24 06:07:46;;;;;;;28.15;13.32;;;;;;;;;;2528230;23;20073;-94
2023/06/24 06:09:07;;;;;;;25.27;12.95;;;;;;;;;;2531916;23;20040;-92
2023/06/24 06:10:28;;;;;;;28.65;14.80;;;;;;;;;;2528858;23;20021;-92
2023/06/24 06:11:49;;;;;;;28.73;14.18;;;;;;;;;;2529241;23;20014;-92
2023/06/24 06:15:26;;;;;;;30.65;14.07;;;;;;;;;;2545585;23;20009;-92
2023/06/24 06:16:56;;;;;;;31.08;14.30;;;;;;;;;;2534838;23;20010;-91
2023/06/24 06:18:17;;;;;;;26.88;14.02;;;;;;;;;;2529600;23;20078;-91
2023/06/24 06:19:41;;;;;;;32.35;15.88;;;;;;;;;;2528540;23;20010;-92
2023/06/24 06:21:04;;;;;;;23.33;12.70;;;;;;;;;;2527597;23;20375;-92
2023/06/24 06:22:42;;;;;;;;;;;;;;;;;;;;;
2023/06/24 06:24:13;;;;;;;;;;;;;;;;;;;;;
2023/06/24 06:25:58;;;;;;;29.10;14.52;;;;;;;;;;2538250;23;20010;-92
2023/06/24 06:27:19;;;;;;;25.95;13.00;;;;;;;;;;2493292;23;20011;-95
2023/06/24 06:28:40;;;;;;;26.90;13.27;;;;;;;;;;2528926;23;20010;-95
2023/06/24 06:30:01;;;;;;;23.33;12.93;;;;;;;;;;2529889;23;20024;-92
2023/06/24 06:31:24;;;;;;;22.60;13.07;;;;;;;;;;2528118;23;20010;-93
2023/06/24 06:32:48;;;;;;;23.35;11.95;;;;;;;;;;2529960;23;20359;-92
2023/06/24 06:34:09;;;;;;;24.45;13.23;;;;;;;;;;2527717;23;20018;-90
2023/06/24 06:35:30;;;;;;;25.00;13.63;;;;;;;;;;2529066;23;20014;-92
2023/06/24 06:36:57;;;;;;;23.13;12.13;;;;;;;;;;2529987;23;20014;-93
2023/06/24 06:38:32;;;;;;;21.48;12.05;;;;;;;;;;2529704;23;20029;-91
2023/06/24 06:40:02;;;;;;;23.02;12.45;;;;;;;;;;2533910;23;20006;-96
2023/06/24 06:41:31;;;;;;;20.83;12.18;;;;;;;;;;2529743;23;20013;-91
2023/06/24 06:42:52;;;;;;;23.30;13.20;;;;;;;;;;2527435;23;20014;-90
2023/06/24 06:44:13;;;;;;;24.13;12.52;;;;;;;;;;2528973;23;20691;-91
2023/06/24 06:45:33;;;;;;;26.73;13.73;;;;;;;;;;2530750;23;20006;-88
2023/06/24 06:46:54;;;;;;;22.70;12.35;;;;;;;;;;2528561;23;20010;-89
2023/06/24 06:48:18;;;;;;;26.42;12.43;;;;;;;;;;2540658;23;20009;-90
2023/06/24 06:50:11;;;;;;;;;;;;;;;;;;;;;
2023/06/24 06:51:34;;;;;;;23.23;13.27;;;;;;;;;;2532236;23;20033;-90
2023/06/24 06:52:55;;;;;;;28.00;13.40;;;;;;;;;;2520056;23;20090;-89
2023/06/24 06:54:32;;;;;;;25.48;13.25;;;;;;;;;;2512736;23;20018;-89
2023/06/24 06:56:10;;;;;;;26.35;13.32;;;;;;;;;;2545911;23;20009;-90
2023/06/24 06:57:32;;;;;;;24.77;12.30;;;;;;;;;;2532699;23;20018;-91
2023/06/24 06:58:53;;;;;;;25.60;12.57;;;;;;;;;;2528174;23;20016;-90
2023/06/24 07:00:14;;;;;;;23.30;11.85;;;;;;;;;;2528095;23;20475;-90
2023/06/24 07:01:44;;;;;;;22.83;11.68;;;;;;;;;;2529948;23;20454;-92
2023/06/24 07:03:05;;;;;;;18.80;11.30;;;;;;;;;;2532937;23;20078;-91
2023/06/24 07:04:51;;;;;;;;;;;;;;;;;;;;;
2023/06/24 07:08:13;;;;;;;23.02;11.88;;;;;;;;;;2544434;23;20068;-92
2023/06/24 07:09:34;;;;;;;32.38;14.25;;;;;;;;;;2519847;23;20010;-88
2023/06/24 07:10:55;;;;;;;23.50;12.48;;;;;;;;;;2517705;23;20336;-87
2023/06/24 07:12:57;;;;;;;;;;;;;;;;;;;;;
2023/06/24 07:16:47;;;;;;;22.85;10.95;;;;;;;;;;2533442;23;20014;-87
2023/06/24 07:18:30;;;;;;;22.70;11.75;;;;;;;;;;2520862;23;20432;-88
2023/06/24 07:20:33;;;;;;;22.42;11.65;;;;;;;;;;2517627;23;20016;-87
2023/06/24 07:26:22;;;;;;;25.90;12.85;;;;;;;;;;2477268;23;20415;-89
2023/06/24 07:32:07;;;;;;;28.05;12.15;;;;;;;;;;2487397;23;20068;-86
2023/06/24 07:33:56;;;;;;;20.95;10.77;;;;;;;;;;2485535;23;20156;-86
2023/06/24 07:35:54;;;;;;;23.95;11.15;;;;;;;;;;2462784;24;20120;-87
2023/06/24 07:39:33;;;;;;;31.20;12.93;;;;;;;;;;2462360;24;20017;-86
2023/06/24 07:43:38;;;;;;;16.83;9.48;;;;;;;;;;2462406;24;20085;-86
2023/06/24 07:45:28;;;;;;;19.20;10.18;;;;;;;;;;2465298;23;20039;-87
2023/06/24 07:46:56;;;;;;;18.92;10.73;;;;;;;;;;2450994;24;20009;-89
2023/06/24 07:48:42;;;;;;;20.25;10.25;;;;;;;;;;2476280;23;20126;-86
2023/06/24 07:50:05;;;;;;;19.45;9.88;;;;;;;;;;2497924;23;20018;-87
2023/06/24 07:51:45;;;;;;;17.35;8.95;;;;;;;;;;2487147;23;20115;-87
2023/06/24 07:53:50;;;;;;;18.42;9.45;;;;;;;;;;2497733;23;20089;-87
2023/06/24 07:57:31;;;;;;;20.88;10.98;;;;;;;;;;2495678;23;19999;-90
2023/06/24 07:58:56;;;;;;;28.90;12.38;;;;;;;;;;2461912;24;20024;-88
2023/06/24 08:00:25;;;;;;;18.42;9.55;;;;;;;;;;2463189;24;20024;-88
2023/06/24 08:08:23;;;;;;;;;;;;;;;;;;;;;
2023/06/24 08:23:41;;;;;;;25.92;11.90;;;;;;;;;;2485866;23;20019;-89
2023/06/24 08:27:26;;;;;;;15.40;8.93;;;;;;;;;;2496193;23;20012;-89
2023/06/24 08:28:59;;;;;;;15.13;8.65;;;;;;;;;;2487159;23;20016;-88
2023/06/24 08:30:38;;;;;;;13.48;8.40;;;;;;;;;;2483930;23;20012;-89
2023/06/24 08:32:08;;;;;;;16.77;8.63;;;;;;;;;;2487821;23;20030;-90
2023/06/24 08:34:02;;;;;;;;;;;;;;;;;;;;;
2023/06/24 08:37:49;;;;;;;;;;;;;;;;;;;;;
2023/06/24 08:39:22;;;;;;;18.55;8.10;;;;;;;;;;2498766;23;20018;-89
2023/06/24 08:40:52;;;;;;;14.10;8.27;;;;;;;;;;2494910;23;20331;-89
2023/06/24 08:42:35;;;;;;;19.00;8.95;;;;;;;;;;2446701;24;20025;-89
2023/06/24 08:44:09;;;;;;;;;;;;;;;;;;;;;
2023/06/24 08:51:35;;;;;;;10.80;6.13;;;;;;;;;;2474475;23;20417;-91
2023/06/24 08:53:20;;;;;;;14.95;7.78;;;;;;;;;;2481930;23;20016;-89
2023/06/24 08:54:50;;;;;;;10.20;5.75;;;;;;;;;;2498517;23;20019;-91
2023/06/24 08:56:40;;;;;;;;;;;;;;;;;;;;;
2023/06/24 08:58:17;;;;;;;9.88;6.32;;;;;;;;;;2496578;23;20042;-90
2023/06/24 09:00:03;;;;;;;10.63;6.32;;;;;;;;;;2486083;23;20012;-88
2023/06/24 09:01:30;;;;;;;9.68;5.75;;;;;;;;;;2482296;23;20457;-89
2023/06/24 09:03:00;;;;;;;13.63;6.88;;;;;;;;;;2492064;23;20330;-89
2023/06/24 09:04:31;;;;;;;12.68;7.28;;;;;;;;;;2493369;23;20366;-91
2023/06/24 09:08:06;;;;;;;15.55;7.32;;;;;;;;;;2541164;23;20014;-88
2023/06/24 09:12:07;;;;;;;15.45;7.13;;;;;;;;;;2532485;23;20020;-88
2023/06/24 09:14:11;;;;;;;16.02;7.90;;;;;;;;;;2520676;23;20018;-88
2023/06/24 09:15:34;;;;;;;11.80;6.32;;;;;;;;;;2533259;23;20281;-88
2023/06/24 09:17:03;;;;;;;10.23;5.75;;;;;;;;;;2518893;23;20061;-90
2023/06/24 09:26:01;;;;;;;32.20;15.02;;;;;;;;;;2519035;23;20356;-81
2023/06/24 09:29:24;;;;;;;11.85;5.22;;;;;;;;;;2529578;23;20006;-78
2023/06/24 09:31:03;;;;;;;9.20;4.82;;;;;;;;;;2518628;23;20372;-76
2023/06/24 09:32:32;;;;;;;39.88;15.38;;;;;;;;;;2505935;23;20010;-78
2023/06/24 09:33:59;;;;;;;13.23;5.57;;;;;;;;;;2517299;23;20022;-77
2023/06/24 09:35:24;;;;;;;15.18;6.13;;;;;;;;;;2526843;23;20037;-78
2023/06/24 09:36:51;;;;;;;12.02;5.30;;;;;;;;;;2529257;23;20041;-78
2023/06/24 09:38:13;;;;;;;13.05;5.53;;;;;;;;;;2529732;23;20014;-78
2023/06/24 09:39:35;;;;;;;12.98;5.40;;;;;;;;;;2518568;23;20014;-78
2023/06/24 09:41:01;;;;;;;17.20;6.68;;;;;;;;;;2525349;23;20017;-78
2023/06/24 09:42:23;;;;;;;22.80;8.93;;;;;;;;;;2515758;23;20022;-78
2023/06/24 09:43:44;;;;;;;25.33;8.50;;;;;;;;;;2523724;23;20014;-79
2023/06/24 09:45:08;;;;;;;11.68;5.82;;;;;;;;;;2518392;23;20483;-81
2023/06/24 09:46:30;;;;;;;13.32;6.05;;;;;;;;;;2513088;23;20010;-79
2023/06/24 09:47:51;;;;;;;14.23;6.25;;;;;;;;;;2511832;23;20010;-80
2023/06/24 09:49:12;;;;;;;34.53;10.95;;;;;;;;;;2522725;23;20010;-79
2023/06/24 09:50:33;;;;;;;9.70;4.75;;;;;;;;;;2529764;23;20010;-80
2023/06/24 09:51:58;;;;;;;14.00;6.05;;;;;;;;;;2519323;23;20317;-78